createdAt,value
2018-05-06T00:01:24.400Z,5.23
2018-05-06T00:03:50.705Z,5.53
2018-05-06T00:06:16.992Z,6.50
2018-05-06T00:08:43.380Z,6.23
2018-05-06T00:11:09.772Z,6.07
2018-05-06T00:13:36.010Z,5.60
2018-05-06T00:16:02.335Z,5.97
2018-05-06T00:18:28.715Z,6.10
2018-05-06T00:20:54.995Z,6.43
2018-05-06T00:23:21.275Z,5.80
2018-05-06T00:25:47.469Z,6.00
2018-05-06T00:28:13.776Z,6.20
2018-05-06T00:30:40.059Z,6.20
2018-05-06T00:33:06.484Z,5.80
2018-05-06T00:35:32.748Z,6.00
2018-05-06T00:37:58.946Z,6.27
2018-05-06T00:40:25.218Z,5.73
2018-05-06T00:42:51.524Z,6.13
2018-05-06T00:45:17.803Z,5.90
2018-05-06T00:47:44.124Z,5.20
2018-05-06T00:50:10.503Z,5.47
2018-05-06T00:52:36.742Z,5.70
2018-05-06T00:55:03.092Z,5.13
2018-05-06T00:57:29.312Z,5.13
2018-05-06T00:59:55.605Z,5.17
2018-05-06T01:02:21.912Z,5.20
2018-05-06T01:04:48.242Z,4.90
2018-05-06T01:07:14.630Z,5.17
2018-05-06T01:09:41.028Z,4.83
2018-05-06T01:12:07.396Z,5.20
2018-05-06T01:14:33.813Z,5.63
2018-05-06T01:17:00.036Z,5.57
2018-05-06T01:19:26.411Z,4.97
2018-05-06T01:21:52.714Z,5.43
2018-05-06T01:24:19.027Z,5.23
2018-05-06T01:26:45.453Z,4.90
2018-05-06T01:29:11.787Z,4.57
2018-05-06T01:31:38.180Z,4.67
2018-05-06T01:34:04.590Z,4.93
2018-05-06T01:36:30.943Z,4.40
2018-05-06T01:38:57.183Z,4.13
2018-05-06T01:41:24.023Z,4.40
2018-05-06T01:43:56.653Z,4.47
2018-05-06T01:46:25.228Z,4.60
2018-05-06T01:48:51.565Z,4.50
2018-05-06T01:51:17.983Z,3.90
2018-05-06T01:53:44.316Z,4.47
2018-05-06T01:56:10.623Z,4.80
2018-05-06T01:58:36.876Z,4.30
2018-05-06T02:01:03.082Z,4.60
2018-05-06T02:03:29.447Z,4.63
2018-05-06T02:05:55.768Z,4.53
2018-05-06T02:08:22.002Z,4.80
2018-05-06T02:10:48.267Z,4.57
2018-05-06T02:13:14.463Z,4.47
2018-05-06T02:15:40.781Z,5.07
2018-05-06T02:18:07.076Z,4.37
2018-05-06T02:20:33.472Z,5.07
2018-05-06T02:22:59.738Z,4.70
2018-05-06T02:25:25.972Z,4.60
2018-05-06T02:27:52.380Z,4.67
2018-05-06T02:30:18.669Z,4.87
2018-05-06T02:32:44.951Z,4.30
2018-05-06T02:35:11.168Z,4.53
2018-05-06T02:37:37.467Z,4.80
2018-05-06T02:40:03.762Z,5.00
2018-05-06T02:42:29.966Z,4.33
2018-05-06T02:44:56.243Z,4.90
2018-05-06T02:47:22.564Z,4.97
2018-05-06T02:49:48.925Z,4.80
2018-05-06T02:52:15.279Z,4.73
2018-05-06T02:54:41.633Z,5.03
2018-05-06T02:57:07.933Z,4.63
2018-05-06T02:59:34.155Z,4.70
2018-05-06T03:02:00.484Z,4.93
2018-05-06T03:04:26.859Z,5.00
2018-05-06T03:06:53.158Z,4.37
2018-05-06T03:09:19.549Z,4.80
2018-05-06T03:11:45.887Z,4.67
2018-05-06T03:14:12.145Z,5.10
2018-05-06T03:16:38.677Z,4.47
2018-05-06T03:19:04.970Z,5.10
2018-05-06T03:21:31.353Z,4.37
2018-05-06T03:23:57.726Z,4.90
2018-05-06T03:26:24.115Z,4.83
2018-05-06T03:31:23.257Z,5.57
2018-05-06T03:33:49.602Z,5.23
2018-05-06T03:36:15.921Z,5.47
2018-05-06T03:38:42.174Z,5.33
2018-05-06T03:41:08.495Z,5.27
2018-05-06T03:43:34.906Z,5.67
2018-05-06T03:46:01.135Z,5.57
2018-05-06T03:48:27.446Z,5.43
2018-05-06T03:50:53.673Z,5.23
2018-05-06T03:53:19.990Z,5.50
2018-05-06T03:55:46.359Z,4.83
2018-05-06T03:58:18.757Z,5.80
2018-05-06T04:00:45.983Z,5.30
2018-05-06T04:03:12.235Z,6.20
2018-05-06T04:05:38.536Z,6.50
2018-05-06T04:08:04.897Z,7.23
2018-05-06T04:10:31.058Z,6.17
2018-05-06T04:12:57.363Z,7.37
2018-05-06T04:15:23.637Z,6.37
2018-05-06T04:17:49.901Z,7.23
2018-05-06T04:20:16.201Z,7.03
2018-05-06T04:22:42.492Z,6.93
2018-05-06T04:25:08.709Z,8.47
2018-05-06T04:27:34.971Z,7.23
2018-05-06T04:30:01.286Z,7.83
2018-05-06T04:32:27.590Z,7.60
2018-05-06T04:34:53.876Z,6.77
2018-05-06T04:37:20.183Z,7.10
2018-05-06T04:39:46.471Z,7.73
2018-05-06T04:42:12.724Z,8.17
2018-05-06T04:44:38.918Z,9.83
2018-05-06T04:47:05.170Z,9.20
2018-05-06T04:49:31.390Z,8.50
2018-05-06T04:51:57.721Z,8.67
2018-05-06T04:54:24.006Z,8.87
2018-05-06T04:56:50.274Z,9.00
2018-05-06T04:59:16.571Z,8.97
2018-05-06T05:01:42.842Z,8.37
2018-05-06T05:04:09.147Z,8.90
2018-05-06T05:06:35.429Z,8.70
2018-05-06T05:09:01.724Z,9.30
2018-05-06T05:11:27.986Z,9.90
2018-05-06T05:13:54.245Z,8.43
2018-05-06T05:16:20.696Z,10.07
2018-05-06T05:18:47.144Z,9.27
2018-05-06T05:21:13.390Z,9.23
2018-05-06T05:23:39.558Z,8.53
2018-05-06T05:26:05.829Z,8.93
2018-05-06T05:28:32.185Z,8.90
2018-05-06T05:30:58.498Z,9.57
2018-05-06T05:33:24.759Z,9.33
2018-05-06T05:35:50.969Z,9.47
2018-05-06T05:38:17.187Z,9.30
2018-05-06T05:40:43.416Z,8.43
2018-05-06T05:43:09.939Z,8.67
2018-05-06T05:45:36.370Z,12.07
2018-05-06T05:48:02.674Z,9.63
2018-05-06T05:50:28.979Z,7.77
2018-05-06T05:52:55.442Z,9.20
2018-05-06T05:55:21.808Z,7.80
2018-05-06T05:57:48.036Z,6.73
2018-05-06T06:00:14.353Z,7.13
2018-05-06T06:02:40.614Z,8.30
2018-05-06T06:05:06.862Z,8.23
2018-05-06T06:07:33.128Z,8.53
2018-05-06T06:09:59.479Z,6.77
2018-05-06T06:12:25.766Z,7.83
2018-05-06T06:14:52.083Z,7.17
2018-05-06T06:17:18.401Z,6.80
2018-05-06T06:19:44.796Z,7.67
2018-05-06T06:22:11.055Z,7.13
2018-05-06T06:24:37.456Z,8.10
2018-05-06T06:27:03.762Z,7.60
2018-05-06T06:29:30.071Z,7.00
2018-05-06T06:31:56.337Z,6.63
2018-05-06T06:34:22.559Z,6.47
2018-05-06T06:36:48.935Z,6.03
2018-05-06T06:39:15.208Z,6.03
2018-05-06T06:41:41.487Z,6.33
2018-05-06T06:44:07.835Z,6.80
2018-05-06T06:46:34.179Z,6.93
2018-05-06T06:49:00.505Z,7.07
2018-05-06T06:51:26.710Z,7.63
2018-05-06T06:53:52.938Z,7.50
2018-05-06T06:59:08.583Z,6.83
2018-05-06T07:01:34.815Z,7.10
2018-05-06T07:04:01.018Z,7.77
2018-05-06T07:09:44.545Z,8.50
2018-05-06T07:12:10.855Z,6.67
2018-05-06T07:14:37.096Z,6.60
2018-05-06T07:17:03.294Z,7.20
2018-05-06T07:19:29.492Z,7.33
2018-05-06T07:21:55.790Z,7.47
2018-05-06T07:24:22.096Z,7.97
2018-05-06T07:26:48.282Z,7.47
2018-05-06T07:29:14.724Z,7.00
2018-05-06T07:31:41.176Z,7.47
2018-05-06T07:34:07.511Z,6.47
2018-05-06T07:36:33.821Z,8.13
2018-05-06T07:39:00.090Z,7.83
2018-05-06T07:41:26.436Z,7.40
2018-05-06T07:43:52.620Z,7.33
2018-05-06T07:46:18.864Z,7.60
2018-05-06T07:48:45.226Z,6.47
2018-05-06T07:51:11.554Z,7.03
2018-05-06T07:53:37.851Z,7.57
2018-05-06T07:56:04.121Z,6.90
2018-05-06T07:58:30.423Z,7.47
2018-05-06T08:00:56.748Z,7.10
2018-05-06T08:03:23.046Z,7.30
2018-05-06T08:05:49.311Z,7.23
2018-05-06T08:08:15.611Z,7.07
2018-05-06T08:10:41.893Z,6.80
2018-05-06T08:13:08.127Z,9.27
2018-05-06T08:15:34.347Z,8.87
2018-05-06T08:18:00.688Z,6.73
2018-05-06T08:20:26.930Z,9.70
2018-05-06T08:22:53.601Z,7.33
2018-05-06T08:25:19.877Z,12.53
2018-05-06T08:27:46.160Z,8.87
2018-05-06T08:30:12.487Z,8.00
2018-05-06T08:32:38.820Z,9.53
2018-05-06T08:35:05.050Z,8.50
2018-05-06T08:37:31.321Z,8.57
2018-05-06T08:39:57.620Z,8.30
2018-05-06T08:42:23.887Z,8.27
2018-05-06T08:44:50.139Z,7.80
2018-05-06T08:47:16.409Z,7.73
2018-05-06T08:49:42.633Z,6.70
2018-05-06T08:52:08.963Z,6.73
2018-05-06T08:54:35.251Z,6.77
2018-05-06T08:57:01.592Z,6.90
2018-05-06T08:59:27.892Z,6.80
2018-05-06T09:01:54.199Z,5.87
2018-05-06T09:04:20.487Z,5.97
2018-05-06T09:06:46.787Z,6.30
2018-05-06T09:09:13.073Z,6.97
2018-05-06T09:11:39.318Z,7.00
2018-05-06T09:14:05.680Z,7.47
2018-05-06T09:16:31.956Z,6.13
2018-05-06T09:18:58.291Z,4.93
2018-05-06T09:21:24.568Z,4.50
2018-05-06T09:23:50.828Z,4.77
2018-05-06T09:26:17.139Z,5.43
2018-05-06T09:28:43.398Z,6.10
2018-05-06T09:31:09.725Z,4.50
2018-05-06T09:33:36.027Z,3.83
2018-05-06T09:36:02.388Z,3.80
2018-05-06T09:38:28.624Z,3.60
2018-05-06T09:40:54.855Z,4.07
2018-05-06T09:43:21.161Z,4.53
2018-05-06T09:45:47.402Z,4.10
2018-05-06T09:48:13.672Z,3.87
2018-05-06T09:50:39.919Z,4.13
2018-05-06T09:53:06.193Z,4.20
2018-05-06T09:55:32.450Z,4.00
2018-05-06T09:57:58.740Z,4.67
2018-05-06T10:00:25.082Z,4.00
2018-05-06T10:02:51.378Z,4.00
2018-05-06T10:05:17.648Z,4.10
2018-05-06T10:07:43.902Z,4.13
2018-05-06T10:10:10.130Z,4.27
2018-05-06T10:12:36.410Z,4.75
2018-05-06T10:15:02.802Z,4.07
2018-05-06T10:17:29.091Z,3.90
2018-05-06T10:19:55.475Z,4.10
2018-05-06T10:22:21.852Z,4.17
2018-05-06T10:24:48.236Z,4.10
2018-05-06T10:27:14.594Z,4.33
2018-05-06T10:29:40.904Z,4.33
2018-05-06T10:32:07.204Z,3.30
2018-05-06T10:34:33.595Z,4.10
2018-05-06T10:36:59.830Z,3.57
2018-05-06T10:39:26.277Z,3.90
2018-05-06T10:41:52.530Z,4.27
2018-05-06T10:44:18.946Z,3.83
2018-05-06T10:46:45.195Z,3.87
2018-05-06T10:49:11.637Z,3.53
2018-05-06T10:54:53.429Z,3.50
2018-05-06T10:57:19.832Z,4.33
2018-05-06T10:59:46.107Z,4.90
2018-05-06T11:02:12.591Z,3.67
2018-05-06T11:04:38.876Z,3.50
2018-05-06T11:07:05.254Z,3.90
2018-05-06T11:09:31.542Z,3.97
2018-05-06T11:11:57.880Z,4.10
2018-05-06T11:14:24.237Z,3.83
2018-05-06T11:16:50.626Z,3.77
2018-05-06T11:19:16.944Z,4.23
2018-05-06T11:21:43.198Z,4.17
2018-05-06T11:24:09.624Z,4.10
2018-05-06T11:26:36.035Z,4.00
2018-05-06T11:29:02.305Z,3.97
2018-05-06T11:31:28.795Z,4.23
2018-05-06T11:33:55.095Z,3.73
2018-05-06T11:36:21.367Z,3.50
2018-05-06T11:38:47.685Z,4.30
2018-05-06T11:41:14.054Z,4.43
2018-05-06T11:43:40.283Z,4.13
2018-05-06T11:46:06.643Z,4.57
2018-05-06T11:48:33.071Z,4.00
2018-05-06T11:50:59.827Z,4.37
2018-05-06T11:53:26.146Z,4.43
2018-05-06T11:55:52.452Z,3.73
2018-05-06T11:58:18.658Z,3.63
2018-05-06T12:00:44.947Z,3.97
2018-05-06T12:03:11.318Z,3.97
2018-05-06T12:05:37.614Z,4.37
2018-05-06T12:08:03.943Z,4.10
2018-05-06T12:10:30.231Z,4.20
2018-05-06T12:12:56.656Z,4.03
2018-05-06T12:15:23.264Z,3.40
2018-05-06T12:17:49.572Z,3.93
2018-05-06T12:20:15.951Z,3.70
2018-05-06T12:22:42.369Z,4.23
2018-05-06T12:25:08.635Z,3.90
2018-05-06T12:27:35.127Z,4.37
2018-05-06T12:30:01.380Z,4.30
2018-05-06T12:32:27.800Z,4.03
2018-05-06T12:34:54.141Z,3.30
2018-05-06T12:37:20.558Z,3.20
2018-05-06T12:39:46.960Z,3.57
2018-05-06T12:42:13.324Z,3.27
2018-05-06T12:44:39.610Z,3.80
2018-05-06T12:47:05.931Z,3.90
2018-05-06T12:49:32.243Z,3.80
2018-05-06T12:51:58.693Z,3.27
2018-05-06T12:54:25.027Z,3.87
2018-05-06T12:56:51.319Z,3.87
2018-05-06T12:59:17.649Z,3.97
2018-05-06T13:01:43.895Z,5.33
2018-05-06T13:04:10.207Z,3.80
2018-05-06T13:06:36.471Z,3.80
2018-05-06T13:09:02.958Z,3.37
2018-05-06T13:11:29.352Z,4.17
2018-05-06T13:13:55.608Z,3.70
2018-05-06T13:16:21.948Z,3.83
2018-05-06T13:18:48.311Z,4.07
2018-05-06T13:21:14.713Z,4.17
2018-05-06T13:23:41.015Z,3.83
2018-05-06T13:26:07.375Z,3.87
2018-05-06T13:28:33.875Z,4.07
2018-05-06T13:31:00.258Z,3.77
2018-05-06T13:33:26.644Z,4.00
2018-05-06T13:35:53.013Z,3.73
2018-05-06T13:38:19.338Z,4.10
2018-05-06T13:40:45.734Z,4.00
2018-05-06T13:43:12.031Z,4.20
2018-05-06T13:45:38.291Z,4.60
2018-05-06T13:48:04.633Z,4.00
2018-05-06T13:50:30.991Z,4.27
2018-05-06T13:52:57.468Z,4.17
2018-05-06T13:55:23.791Z,4.27
2018-05-06T13:57:50.219Z,4.20
2018-05-06T14:00:16.742Z,3.50
2018-05-06T14:02:43.064Z,3.97
2018-05-06T14:05:09.489Z,4.33
2018-05-06T14:07:35.762Z,4.00
2018-05-06T14:10:02.176Z,4.10
2018-05-06T14:12:28.406Z,3.73
2018-05-06T14:14:54.683Z,3.50
2018-05-06T14:17:21.033Z,4.20
2018-05-06T14:19:47.338Z,4.13
2018-05-06T14:22:13.602Z,4.27
2018-05-06T14:24:39.845Z,3.80
2018-05-06T14:27:06.099Z,4.27
2018-05-06T14:29:32.314Z,3.60
2018-05-06T14:31:58.483Z,3.80
2018-05-06T14:34:24.823Z,3.23
2018-05-06T14:36:51.205Z,3.70
2018-05-06T14:39:17.482Z,3.70
2018-05-06T14:41:43.696Z,3.97
2018-05-06T14:44:09.870Z,4.33
2018-05-06T14:46:42.269Z,4.13
2018-05-06T14:49:08.521Z,4.03
2018-05-06T14:51:34.827Z,4.53
2018-05-06T14:54:01.156Z,4.20
2018-05-06T14:56:27.396Z,3.73
2018-05-06T14:58:53.722Z,3.87
2018-05-06T15:01:20.119Z,3.80
2018-05-06T15:03:46.535Z,4.37
2018-05-06T15:06:12.888Z,4.27
2018-05-06T15:15:23.548Z,4.30
2018-05-06T15:17:52.081Z,4.00
2018-05-06T15:20:18.474Z,4.23
2018-05-06T15:22:44.918Z,4.20
2018-05-06T15:25:11.357Z,4.93
2018-05-06T15:27:37.641Z,7.07
2018-05-06T15:30:03.976Z,4.63
2018-05-06T15:32:30.439Z,4.03
2018-05-06T15:34:56.738Z,3.97
2018-05-06T15:37:23.142Z,4.03
2018-05-06T15:39:49.697Z,4.17
2018-05-06T15:42:15.999Z,4.63
2018-05-06T15:44:42.383Z,4.37
2018-05-06T15:47:08.764Z,4.30
2018-05-06T15:49:35.198Z,4.27
2018-05-06T15:52:01.825Z,4.33
2018-05-06T15:54:28.279Z,4.37
2018-05-06T15:56:54.787Z,4.10
2018-05-06T15:59:21.083Z,4.50
2018-05-06T16:01:53.528Z,4.03
2018-05-06T16:04:19.779Z,4.00
2018-05-06T16:06:46.047Z,4.03
2018-05-06T16:09:12.387Z,4.63
2018-05-06T16:11:43.801Z,3.80
2018-05-06T16:14:10.495Z,4.20
2018-05-06T16:16:36.703Z,4.60
2018-05-06T16:19:02.964Z,4.63
2018-05-06T16:21:29.222Z,4.20
2018-05-06T16:23:55.541Z,5.03
2018-05-06T16:26:21.887Z,4.27
2018-05-06T16:28:48.130Z,5.27
2018-05-06T16:31:14.483Z,4.07
2018-05-06T16:33:40.743Z,5.03
2018-05-06T16:36:06.927Z,4.63
2018-05-06T16:38:33.392Z,5.20
2018-05-06T16:40:59.732Z,5.20
2018-05-06T16:43:26.054Z,4.13
2018-05-06T16:45:52.376Z,5.80
2018-05-06T16:48:18.671Z,5.33
2018-05-06T16:50:45.037Z,4.83
2018-05-06T16:53:11.567Z,6.03
2018-05-06T16:55:37.989Z,5.00
2018-05-06T16:58:04.224Z,3.93
2018-05-06T17:00:30.734Z,4.73
2018-05-06T17:02:57.156Z,4.57
2018-05-06T17:05:23.647Z,4.13
2018-05-06T17:07:50.179Z,3.97
2018-05-06T17:10:16.506Z,4.50
2018-05-06T17:12:43.548Z,4.70
2018-05-06T17:15:09.969Z,4.93
2018-05-06T17:17:36.316Z,4.00
2018-05-06T17:20:08.601Z,4.67
2018-05-06T17:22:34.916Z,4.97
2018-05-06T17:25:01.595Z,4.80
2018-05-06T17:27:27.929Z,4.90
2018-05-06T17:29:54.254Z,4.87
2018-05-06T17:32:20.507Z,5.17
2018-05-06T17:34:46.876Z,4.67
2018-05-06T17:37:13.191Z,4.60
2018-05-06T17:39:39.602Z,4.60
2018-05-06T17:42:05.874Z,4.53
2018-05-06T17:44:32.841Z,4.30
2018-05-06T17:46:59.185Z,4.20
2018-05-06T17:49:25.855Z,4.40
2018-05-06T17:54:25.139Z,4.40
2018-05-06T17:56:51.699Z,5.00
2018-05-06T17:59:17.919Z,4.70
2018-05-06T18:01:44.180Z,4.67
2018-05-06T18:04:10.488Z,5.07
2018-05-06T18:06:36.831Z,5.13
2018-05-06T18:09:03.163Z,5.37
2018-05-06T18:11:29.454Z,5.10
2018-05-06T18:13:55.869Z,5.23
2018-05-06T18:16:22.176Z,4.90
2018-05-06T18:18:48.550Z,4.90
2018-05-06T18:21:14.867Z,4.77
2018-05-06T18:23:41.215Z,4.57
2018-05-06T18:26:07.471Z,4.50
2018-05-06T18:28:33.826Z,4.40
2018-05-06T18:31:00.007Z,4.27
2018-05-06T18:33:26.511Z,4.10
2018-05-06T18:35:52.831Z,4.37
2018-05-06T18:38:19.143Z,4.20
2018-05-06T18:40:45.378Z,3.83
2018-05-06T18:43:11.661Z,4.17
2018-05-06T18:45:37.983Z,3.77
2018-05-06T18:48:04.263Z,4.13
2018-05-06T18:50:30.611Z,3.73
2018-05-06T18:52:57.023Z,4.37
2018-05-06T18:55:23.197Z,4.90
2018-05-06T18:57:49.463Z,4.20
2018-05-06T19:00:15.736Z,4.33
2018-05-06T19:02:42.191Z,4.53
2018-05-06T19:05:08.663Z,4.60
2018-05-06T19:07:34.908Z,4.33
2018-05-06T19:10:01.221Z,4.50
2018-05-06T19:12:27.523Z,5.00
2018-05-06T19:14:53.752Z,3.90
2018-05-06T19:17:20.234Z,4.17
2018-05-06T19:19:46.590Z,5.07
2018-05-06T19:22:12.738Z,4.70
2018-05-06T19:24:39.244Z,5.10
2018-05-06T19:27:05.604Z,5.33
2018-05-06T19:29:32.033Z,5.17
2018-05-06T19:31:58.251Z,5.20
2018-05-06T19:34:24.445Z,5.20
2018-05-06T19:36:50.617Z,5.43
2018-05-06T19:39:16.910Z,5.60
2018-05-06T19:41:43.396Z,5.57
2018-05-06T19:44:09.691Z,6.33
2018-05-06T19:46:35.936Z,5.60
2018-05-06T19:49:02.248Z,5.90
2018-05-06T19:51:28.446Z,6.57
2018-05-06T19:53:54.760Z,6.80
2018-05-06T19:56:21.051Z,6.80
2018-05-06T19:58:47.332Z,6.57
2018-05-06T20:01:13.661Z,7.63
2018-05-06T20:03:39.907Z,7.43
2018-05-06T20:06:06.142Z,7.90
2018-05-06T20:08:32.343Z,7.27
2018-05-06T20:10:58.534Z,7.10
2018-05-06T20:13:24.987Z,6.67
2018-05-06T20:15:51.425Z,6.23
2018-05-06T20:18:17.724Z,5.97
2018-05-06T20:20:44.113Z,5.67
2018-05-06T20:23:10.339Z,6.20
2018-05-06T20:25:36.727Z,6.30
2018-05-06T20:28:03.127Z,7.10
2018-05-06T20:30:29.398Z,9.63
2018-05-06T20:32:55.618Z,16.77
2018-05-06T20:35:21.947Z,17.07
2018-05-06T20:37:48.188Z,17.70
2018-05-06T20:40:14.424Z,15.80
2018-05-06T20:42:40.856Z,14.67
2018-05-06T20:45:07.211Z,10.10
2018-05-06T20:47:33.530Z,10.33
2018-05-06T20:49:59.850Z,12.13
2018-05-06T20:52:26.111Z,12.00
2018-05-06T20:54:52.371Z,9.47
2018-05-06T20:57:18.681Z,7.10
2018-05-06T20:59:44.889Z,7.43
2018-05-06T21:02:11.249Z,7.67
2018-05-06T21:04:37.471Z,6.77
2018-05-06T21:07:03.710Z,6.70
2018-05-06T21:09:29.980Z,6.33
2018-05-06T21:11:56.331Z,6.10
2018-05-06T21:14:22.658Z,6.20
2018-05-06T21:16:48.827Z,6.53
2018-05-06T21:19:15.158Z,7.40
2018-05-06T21:21:41.278Z,7.80
2018-05-06T21:24:07.577Z,8.67
2018-05-06T21:26:33.901Z,8.60
2018-05-06T21:29:00.218Z,8.30
2018-05-06T21:31:26.469Z,8.13
2018-05-06T21:33:52.899Z,8.57
2018-05-06T21:36:19.356Z,8.10
2018-05-06T21:38:45.727Z,8.23
2018-05-06T21:41:11.864Z,8.50
2018-05-06T21:43:38.270Z,8.70
2018-05-06T21:46:04.620Z,8.57
2018-05-06T21:48:30.937Z,8.20
2018-05-06T21:50:57.299Z,7.83
2018-05-06T21:53:23.524Z,7.97
2018-05-06T21:55:49.756Z,8.40
2018-05-06T21:58:16.060Z,8.47
2018-05-06T22:00:42.235Z,8.17
2018-05-06T22:03:08.429Z,8.50
2018-05-06T22:05:34.633Z,8.13
2018-05-06T22:08:00.883Z,8.00
2018-05-06T22:10:27.053Z,7.43
2018-05-06T22:12:53.462Z,8.13
2018-05-06T22:15:19.798Z,6.70
2018-05-06T22:17:46.052Z,6.83
2018-05-06T22:20:12.339Z,7.73
2018-05-06T22:22:38.991Z,7.30
2018-05-06T22:25:05.288Z,7.27
2018-05-06T22:27:31.527Z,8.00
2018-05-06T22:29:57.839Z,7.40
2018-05-06T22:32:24.191Z,6.83
2018-05-06T22:34:50.451Z,7.43
2018-05-06T22:37:16.716Z,6.90
2018-05-06T22:39:43.016Z,6.67
2018-05-06T22:42:09.320Z,7.30
2018-05-06T22:44:35.482Z,6.77
2018-05-06T22:47:01.663Z,7.53
2018-05-06T22:49:28.099Z,6.83
2018-05-06T22:51:54.296Z,7.13
2018-05-06T22:54:20.614Z,6.93
2018-05-06T22:56:46.825Z,7.03
2018-05-06T22:59:13.231Z,6.17
2018-05-06T23:01:39.508Z,6.87
2018-05-06T23:04:05.786Z,6.80
2018-05-06T23:06:32.110Z,6.87
2018-05-06T23:08:58.384Z,6.87
2018-05-06T23:11:24.731Z,7.80
2018-05-06T23:13:51.011Z,7.17
2018-05-06T23:16:17.464Z,6.87
2018-05-06T23:18:43.671Z,6.10
2018-05-06T23:21:10.043Z,6.43
2018-05-06T23:23:36.421Z,7.03
2018-05-06T23:26:02.675Z,6.20
2018-05-06T23:28:29.040Z,6.93
2018-05-06T23:30:55.347Z,6.90
2018-05-06T23:33:21.611Z,7.60
2018-05-06T23:35:47.923Z,6.83
2018-05-06T23:38:14.347Z,7.13
2018-05-06T23:40:40.630Z,7.37
2018-05-06T23:43:06.868Z,7.10
2018-05-06T23:45:33.151Z,7.10
2018-05-06T23:47:59.413Z,7.37
2018-05-06T23:50:25.668Z,7.00
2018-05-06T23:52:52.058Z,7.43
2018-05-06T23:55:18.425Z,6.57
2018-05-06T23:57:44.792Z,6.33
